Nouméa, Nouvelle-Calédonie

10:25 NCT le 18 janvier 2017 (GMT +1100)
Allée de la Boussole | | Change Station

Alt. 183 ft 22.28 °S, 166.45 °E | Updated 4 minutes ago

Ciel dégagé
Ciel dégagé
85.5 ° F
Paraît 106 ° F
N
3.7
Vent Variable Vent de ESE
Gusts 6.2 mph

Aujourd'hui
Haut(e) -- | Bas -- ° F
--% Risque de précip.
Hier
Haut(e) -- | Bas -- ° F
Precip. -- pouce
Pression 29.86 pouce
Visibilité -9999.0 Miles terrestres
Nuages
indice de chaleur 106 ° F
Point de rosée 84 ° F
Humidité 94%
Précipitations 0.00 pouce
Profondeur de la couche neigeuse Non disponible.
5:25 AM 6:43 PM
Lune gibbeuse décroissante, 69% visible
METAR NWWW 172300Z AUTO 08003KT 010V160 CAVOK 29/17 Q1011 BECMG 17015KT
Pression 29.86 pouce
Visibilité -9999.0 Miles terrestres
Nuages
indice de chaleur 106 ° F
Point de rosée 84 ° F
Humidité 94%
Précipitations 0.00 pouce
Profondeur de la couche neigeuse Non disponible.
5:25 AM 6:43 PM
Lune gibbeuse décroissante, 69% visible
METAR NWWW 172300Z AUTO 08003KT 010V160 CAVOK 29/17 Q1011 BECMG 17015KT

Get Your Daily Forecast Email!

Thanks for signing up!

Be on the lookout for a verification email in your inbox.

You'll start receiving the daily forecast at 8 AM.

×

10-Day Weather Forecast

No radar image for this location.
×

Almanac

Astronomie

Jan. 18, 2017 Lever Coucher
Temps réel
Crépuscule civil
Crépuscule nautique
Crépuscule astronomique
Lune
Durée de lumière visible
Longueur du jour
Tomorrow will be .
, % of the Moon is Illuminated

Extrêmes aujourd'hui

Country Highs Country Lows

Community

WunderPhotos

Upload Photos

1,962,540 Photos téléchargées !

WunderBlog® & News

Nearby

Qualité de l'air

  Qualité de l'air Indice de la qualité de l'air Polluant
Not available.

Épaisseur de neige

Station Depth Altitude

Activité sismique

Ville Distance Mag. Time & Date
Minimum magnitude displayed is 2.5.

Températures des eaux côtières

Lieu Température

Stations

Stations météo à proximité

Emplacement de la station Température Refroidissement éolien Point de rosée Humidité Vent Precip. Alt. Mise à jour Type